Home > Products > Valid Products > TAF

000
FTUS45 KPIH 252300
TAFIDA
TAF
KIDA 252322Z 2600/2624 22018G25KT P6SM VCSH SCT008 OVC015
     FM260800 22015G25KT P6SM VCSH SCT008 OVC015
     FM261600 21010G20KT P6SM VCSH SCT008 OVC025
     FM262000 22012G22KT P6SM SCT025 BKN200=



000
FTUS45 KPIH 252300
TAFPIH
TAF
KPIH 252322Z 2600/2624 24025G35KT P6SM VCSH SCT008 OVC025
     FM260400 24020KT P6SM SCT008 OVC025
     FM261500 22015G25KT P6SM SCT008 OVC025
     FM261800 22016G26KT P6SM SCT025 BKN200=



000
FTUS45 KPIH 252300
TAFBYI
TAF
KBYI 252322Z 2600/2624 27018G27KT P6SM SCT008 OVC040
     FM260400 26020G30KT P6SM SCT008 OVC025
     FM261200 25015G25KT P6SM SCT008 OVC035
     FM261700 25012KT P6SM SCT035 BKN200=



000
FTUS45 KPIH 252300
TAFSUN
TAF
KSUN 252322Z 2600/2624 30011G20KT P6SM FEW025 BKN060
     FM260400 31010KT P6SM FEW025 SCT150
     FM261200 31010KT P6SM SCT150
     FM261900 24010KT P6SM BKN180
      AMD LTD TO CLD VIS AND WIND 2606/2614=



000
FTUS45 KPIH 251700
TAFIDA
TAF
KIDA 251735Z 2518/2618 22020G30KT P6SM VCSH SCT008 OVC025
      TEMPO 2518/2522 SCT008 OVC015
     FM260800 22015G25KT P6SM VCSH SCT008 OVC015
     FM261600 21010G20KT P6SM VCSH SCT008 OVC025=



000
FTUS45 KPIH 251700
TAFPIH
TAF
KPIH 251735Z 2518/2618 21020G30KT P6SM VCSH SCT008 OVC025
     FM252200 24025G35KT P6SM VCSH SCT008 OVC025
      TEMPO 2522/2524 SCT008 OVC015
     FM260400 24020G30KT P6SM SCT008 OVC025
     FM261500 22015G25KT P6SM SCT008 OVC025=



000
FTUS45 KPIH 251700
TAFSUN
TAF
KSUN 251735Z 2518/2618 31006KT P6SM VCSH FEW025 SCT110 SCT180
     FM252100 31015G25KT P6SM FEW025 SCT110
     FM260400 31010KT P6SM FEW025 SCT150
     FM261200 31010KT P6SM SKC=



000
FTUS45 KPIH 251700
TAFBYI
TAF
KBYI 251735Z 2518/2618 26010G20KT P6SM SCT008 OVC035
     FM251900 27020G30KT P6SM SCT008 OVC035
     FM252100 27025G35KT P6SM SCT008 OVC035
     FM260400 26020G30KT P6SM SCT008 OVC025
     FM261200 25015G25KT P6SM SCT008 OVC035=



000
FTUS45 KPIH 251600 AAA
TAFIDA
TAF AMD
KIDA 251609Z 2516/2612 21020G30KT P6SM VCSH BKN025 BKN060
     FM252100 22020G30KT P6SM BKN015 OVC080
     FM260100 22018KT P6SM SCT015 BKN100
     FM260600 22014KT P6SM SCT007 BKN015=



000
FTUS45 KPIH 251600 AAA
TAFPIH
TAF AMD
KPIH 251607Z 2516/2612 21020G30KT P6SM VCSH SCT008 OVC025
     FM252200 24025G35KT P6SM VCSH BKN010 OVC020
     FM260100 21018KT P6SM SCT020 BKN040
     FM260600 24010KT P6SM SCT010 BKN020=



000
FTUS45 KPIH 251100
TAFSUN
TAF
KSUN 251125Z 2512/2612 31006KT P6SM VCSH SCT025 BKN050
     FM251900 VRB05KT P6SM VCSH SCT050 BKN200
     FM260200 30006KT P6SM SCT030 BKN200
      AMD LTD TO CLD VIS AND WIND TIL 251400=



000
FTUS45 KPIH 251100
TAFPIH
TAF
KPIH 251125Z 2512/2612 19015G25KT P6SM VCSH FEW015 BKN060
     FM251400 21020KT P6SM VCSH SCT008 BKN020 OVC070
     FM252000 22024G34KT P6SM VCSH BKN010 OVC020
     FM260100 21018KT P6SM SCT020 BKN040
     FM260600 24010KT P6SM SCT010 BKN020=



000
FTUS45 KPIH 251100
TAFIDA
TAF
KIDA 251125Z 2512/2612 21015G25KT P6SM VCSH SCT020 BKN060
     FM251400 22015G25KT P6SM VCSH BKN008 OVC035
     FM252100 22015G25KT P6SM BKN015 OVC080
     FM260100 22018KT P6SM SCT015 BKN100
     FM260600 22014KT P6SM SCT007 BKN015=



000
FTUS45 KPIH 251100
TAFBYI
TAF
KBYI 251125Z 2512/2612 22008KT P6SM VCSH SCT025 SCT050
     FM251700 24018G28KT P6SM SCT014 BKN040
     FM252000 26026G36KT P6SM SCT030 OVC100
     FM260300 24020KT P6SM SCT030 OVC100=



000
FTUS45 KPIH 250900 AAA
TAFPIH
TAF AMD
KPIH 250951Z 2510/2606 19015G25KT P6SM FEW015 BKN060
     FM251100 22020KT P6SM -RASN BKN035 BKN070 OVC120
     FM251300 21020KT P6SM -RASN SCT008 BKN020 OVC070
     FM251800 22018G25KT P6SM -RA BKN010 OVC020
     FM260100 21016KT P6SM SCT020 BKN040=



000
FTUS45 KPIH 250500
TAFPIH
TAF
KPIH 250528Z 2506/2606 21012KT P6SM FEW015 BKN150
     FM251100 22020KT P6SM -RASN BKN035 BKN070 OVC120
     FM251300 21020KT P6SM -RASN SCT008 BKN020 OVC070
     FM251800 22018G25KT P6SM -RA BKN010 OVC020
     FM260100 21016KT P6SM SCT020 BKN040=



000
FTUS45 KPIH 250500
TAFBYI
TAF
KBYI 250528Z 2506/2606 24011KT P6SM SCT015 BKN120
     FM251000 19010KT P6SM VCSH FEW015 BKN025
     FM251200 23018KT P6SM VCSH SCT008 BKN020 OVC040
     FM252000 26022G32KT P6SM SCT030 OVC100=



000
FTUS45 KPIH 250500
TAFIDA
TAF
KIDA 250528Z 2506/2606 20012G20KT P6SM SCT015 BKN080
     FM250800 21015G25KT 4SM -SN SCT006 BKN015 OVC030
     FM251400 22015G25KT 6SM -SN BKN008 OVC035
     FM252100 22015G25KT P6SM BKN015 OVC080
     FM260100 22018KT P6SM SCT015 BKN100=



000
FTUS45 KPIH 250500
TAFSUN
TAF
KSUN 250528Z 2506/2606 30008KT P6SM FEW025 BKN130
     FM250800 VRB06KT 2SM -SN SCT010 BKN020 OVC050
     FM251300 31006KT P6SM VCSH BKN025 BKN110
     FM251900 VRB05KT P6SM VCSH SCT050 BKN200
     FM260200 30006KT P6SM SCT030 BKN200
      AMD LTD TO CLD VIS AND WIND TIL 251400=



000
FTUS45 KPIH 242300
TAFBYI
TAF
KBYI 242321Z 2500/2524 27011G18KT P6SM FEW030 BKN180
     FM250100 24011KT P6SM SCT015 BKN150
     FM251000 19010KT P6SM VCSH FEW015 BKN025
     FM251200 23015KT P6SM VCSH SCT008 BKN020 OVC040
     FM251800 26018G25KT P6SM SCT030 OVC100=



000
FTUS45 KPIH 242300
TAFIDA
TAF
KIDA 242321Z 2500/2524 21014KT P6SM SCT040 BKN180
     FM250300 20011KT P6SM SCT015 BKN130
     FM250800 21015G25KT 4SM -SN SCT006 BKN015 OVC030
     FM251400 22015G25KT 6SM -SN BKN008 OVC035
     FM252100 22015G25KT P6SM BKN015 OVC080=



000
FTUS45 KPIH 242300
TAFPIH
TAF
KPIH 242321Z 2500/2524 24015KT P6SM FEW015 BKN180
     FM250200 21012KT P6SM FEW015 BKN150
     FM251100 22020KT P6SM -SN BKN035 BKN070 OVC120
     FM251300 21020KT 5SM -SN SCT008 BKN020 OVC070
     FM251800 22018G25KT P6SM -RA BKN010 OVC020=



000
FTUS45 KPIH 242300
TAFSUN
TAF
KSUN 242321Z 2500/2524 12006KT P6SM FEW025 BKN130
     FM250800 VRB06KT 2SM -SN SCT010 BKN020 OVC050
     FM251300 31006KT P6SM VCSH BKN025 BKN110
     FM251900 VRB05KT P6SM SCT050 BKN200
      AMD LTD TO CLD VIS AND WIND 2506/2514=



000
FTUS45 KPIH 241700
TAFIDA
TAF
KIDA 241733Z 2418/2518 24006KT P6SM SCT040
     FM250300 20010KT P6SM SCT015 BKN100 BKN130
     FM250800 21015G25KT 4SM -SN SCT015 BKN025 OVC080
     FM251400 22015G25KT 6SM -SN BKN015 OVC035=



000
FTUS45 KPIH 241700
TAFSUN
TAF
KSUN 241733Z 2418/2518 31006KT P6SM FEW015
     FM242100 VRB04KT P6SM FEW025 SCT130
     FM250600 32006KT P6SM VCSH SCT035 BKN080 OVC110
     FM251200 31006KT P6SM VCSH BKN025 BKN110=



000
FTUS45 KPIH 241700
TAFPIH
TAF
KPIH 241733Z 2418/2518 24015KT P6SM FEW025
     FM250100 22010KT P6SM SCT015 SCT110 SCT140
     FM250400 21015KT P6SM SCT015 BKN110 BKN130
     FM250900 22020KT P6SM VCSH BKN035 BKN070 OVC120
     FM251300 21020KT P6SM VCSH BKN025 OVC070=



000
FTUS45 KPIH 241700
TAFBYI
TAF
KBYI 241733Z 2418/2518 26015G25KT P6SM SCT025 SCT140 SCT180
     FM250100 21008KT P6SM SCT015 BKN130
     FM250800 19010KT P6SM VCSH FEW015 SCT040 BKN060
     FM251200 23015KT P6SM VCSH SCT008 BKN025 OVC040=



000
FTUS45 KPIH 241600 AAA
TAFBYI
TAF AMD
KBYI 241638Z 2417/2512 25015KT P6SM FEW020
     FM242200 26008KT P6SM SCT040
     FM250800 22012KT P6SM SCT030 BKN080=



000
FTUS45 KPIH 241100
TAFSUN
TAF
KSUN 241120Z 2412/2512 32008KT P6SM SCT070
     FM241900 16007KT P6SM FEW015
     FM250300 30008KT P6SM BKN150
     FM250700 32007KT P6SM VCSH SCT030 BKN060
      AMD LTD TO CLD VIS AND WIND TIL 241400=



000
FTUS45 KPIH 241100
TAFPIH
TAF
KPIH 241120Z 2412/2512 24011KT P6SM SCT015
     FM250100 24009KT P6SM FEW015 SCT100
     FM250800 20012KT P6SM BKN050 OVC100=



000
FTUS45 KPIH 241100
TAFBYI
TAF
KBYI 241120Z 2412/2512 25015G25KT P6SM FEW020
     FM242200 26008KT P6SM SCT040
     FM250800 22012KT P6SM SCT030 BKN080=



000
FTUS45 KPIH 241100
TAFIDA
TAF
KIDA 241120Z 2412/2512 20010KT P6SM FEW015 BKN120
     FM241600 21009KT P6SM SCT015
     FM250800 21010KT P6SM SCT015 OVC030=



000
FTUS45 KPIH 240900 AAA
TAFPIH
TAF AMD
KPIH 240948Z 2410/2506 24015G20KT P6SM FEW030 SCT110
     FM241100 22013KT P6SM SCT025 BKN100
     FM250100 24009KT P6SM FEW015=



000
FTUS45 KPIH 240900 AAA
TAFPIH
TAF AMD
KPIH 240948Z 2410/2506 24015G20KT P6SM FEW030 SCT110
     FM241100 22013KT P6SM SCT025 BKN100
     FM250100 24009KT P6SM FEW015=



000
FTUS45 KPIH 240500
TAFPIH
TAF
KPIH 240528Z 2406/2506 24019G27KT P6SM SCT025 BKN090
     FM240800 22020KT P6SM VCSH FEW008 BKN025 BKN100
     FM241100 22013KT P6SM SCT025 BKN100
     FM250100 24009KT P6SM FEW015=



000
FTUS45 KPIH 240500
TAFIDA
TAF
KIDA 240528Z 2406/2506 21018G23KT P6SM VCSH SCT015 OVC090
     FM240900 22015KT P6SM SCT015
     FM241600 21009KT P6SM SCT015=



000
FTUS45 KPIH 240500
TAFBYI
TAF
KBYI 240528Z 2406/2506 24012KT P6SM VCSH FEW025 BKN090
     FM241100 25015KT P6SM BKN015
     FM241600 27015G22KT P6SM SCT015
     FM242300 26008KT P6SM SCT040=



000
FTUS45 KPIH 240500
TAFSUN
TAF
KSUN 240528Z 2406/2506 VRB05KT P6SM VCSH SCT025 BKN150
     FM241000 32009KT P6SM SKC
     FM241900 16007KT P6SM FEW015
     FM250300 30008KT P6SM BKN150
      AMD LTD TO CLD VIS AND WIND TIL 241400=



000
FTUS45 KPIH 232300
TAFIDA
TAF
KIDA 232325Z 2400/2424 23015G25KT P6SM SCT070 BKN200
     FM240500 21018KT P6SM VCSH SCT008 BKN020 OVC100
     FM240900 22015KT P6SM SCT008 BKN015
     FM241600 21008KT P6SM SCT015=



000
FTUS45 KPIH 232300
TAFBYI
TAF
KBYI 232325Z 2400/2424 26015G25KT P6SM SCT040 BKN100
     FM240200 25018KT P6SM SCT040 BKN200
     FM240600 24016KT P6SM VCSH BKN025 BKN090
     FM241200 25015KT P6SM SCT015=



000
FTUS45 KPIH 232300
TAFSUN
TAF
KSUN 232325Z 2400/2424 15008KT P6SM SCT040 BKN150
     FM240300 31006KT P6SM SCT025 SCT150
     FM241900 16007KT P6SM FEW015
      AMD LTD TO CLD VIS AND WIND 2406/2414=



000
FTUS45 KPIH 232300
TAFPIH
TAF
KPIH 232325Z 2400/2424 24018G25KT P6SM SCT025 BKN200
     FM240800 22020KT P6SM VCSH FEW008 BKN025 BKN110
     FM241400 22014G22KT P6SM SCT025 BKN100=



000
FTUS45 KPIH 232100 AAA
TAFPIH
TAF AMD
KPIH 232106Z 2321/2418 24020G30KT P6SM FEW025 FEW080 SCT140
     FM232300 25015KT P6SM VCSH FEW025 BKN090 BKN120
     FM240600 23010KT P6SM VCSH FEW008 BKN025 BKN110=



000
FTUS45 KPIH 231700
TAFSUN
TAF
KSUN 231723Z 2318/2418 31006KT P6SM FEW025
     FM232100 25010KT P6SM BKN040 BKN180
     FM240300 31006KT P6SM SCT025 SCT180=



000
FTUS45 KPIH 231700
TAFBYI
TAF
KBYI 231723Z 2318/2418 27020G30KT P6SM FEW008 FEW070 SCT120
     FM240000 26015G25KT P6SM SCT040 BKN100
     FM240200 24010KT P6SM BKN040 BKN100
     FM240800 18010KT P6SM VCSH BKN025 BKN090
     FM241200 17015KT P6SM SCT015 SCT130=



000
FTUS45 KPIH 231700
TAFIDA
TAF
KIDA 231723Z 2318/2418 23006KT P6SM FEW015 SCT100
     FM232200 23015KT P6SM VCSH SCT015 BKN090 BKN110
     FM240400 21015KT P6SM VCSH SCT008 BKN025 OVC100
     FM240800 22015KT P6SM SCT008 BKN015
     FM241700 21006KT P6SM SCT015 SCT050=



000
FTUS45 KPIH 231700
TAFPIH
TAF
KPIH 231723Z 2318/2418 24015KT P6SM FEW015 FEW080 SCT140
     FM232300 25015KT P6SM VCSH FEW015 BKN090 BKN120
     FM240600 23010KT P6SM VCSH FEW008 BKN025 BKN110=



000
FTUS45 KPIH 231300 AAA
TAFPIH
TAF AMD
KPIH 231352Z 2314/2412 25015KT P6SM SCT015 SCT050
     FM232000 24012KT P6SM SCT008 OVC015
     FM240300 22015KT P6SM VCSH OVC008=



000
FTUS45 KPIH 231100
TAFIDA
TAF
KIDA 231120Z 2312/2412 24008KT P6SM FEW010 SCT100
     FM240100 21012KT P6SM VCSH OVC008=



000
FTUS45 KPIH 231100
TAFSUN
TAF
KSUN 231120Z 2312/2412 34010G15KT P6SM FEW100
     FM231900 16008KT P6SM FEW025 SCT100
     FM240200 30007KT P6SM FEW100
      AMD LTD TO CLD VIS AND WIND TIL 231400=



000
FTUS45 KPIH 231100
TAFPIH
TAF
KPIH 231120Z 2312/2412 25015KT P6SM BKN015 OVC050
     FM232000 24012KT P6SM SCT008 OVC015
     FM240300 22015KT P6SM VCSH OVC008=



000
FTUS45 KPIH 231100
TAFBYI
TAF
KBYI 231120Z 2312/2412 27020G30KT P6SM FEW050
     FM231900 26017G24KT P6SM SCT008 BKN025
     FM232300 26014G24KT P6SM SCT025 BKN080
     FM240200 24012KT P6SM BKN080=



000
FTUS45 KPIH 230500
TAFSUN
TAF
KSUN 230528Z 2306/2406 31009KT P6SM SCT020
     FM231300 31015KT P6SM SKC
     FM231900 16008KT P6SM FEW015
     FM240200 30007KT P6SM BKN050
      AMD LTD TO CLD VIS AND WIND TIL 231400=



000
FTUS45 KPIH 230500
TAFIDA
TAF
KIDA 230528Z 2306/2406 21013KT P6SM VCSH SCT005 OVC100
     FM231300 21012KT P6SM SCT008 BKN100
     FM240100 21010KT P6SM VCSH OVC008=



000
FTUS45 KPIH 230500
TAFPIH
TAF
KPIH 230528Z 2306/2406 23023G31KT P6SM VCSH OVC010
      TEMPO 2306/2308 5SM -SN OVC008
     FM231000 23015KT P6SM SCT010 BKN060
     FM231400 23015KT P6SM OVC008
     FM232000 24016G25KT P6SM SCT008 OVC015=



000
FTUS45 KPIH 230500
TAFBYI
TAF
KBYI 230528Z 2306/2406 25014G24KT P6SM SCT009 BKN070 OVC100
     FM231000 27015KT P6SM OVC008
     FM231900 26017G24KT P6SM SCT008 BKN015
     FM232300 26015G23KT P6SM SCT020 BKN080=



000
FTUS45 KPIH 230300 AAB
TAFSUN
TAF AMD
KSUN 230351Z 2304/2324 32007KT P6SM VCSH SCT025 BKN100
     FM230600 31009KT P6SM SCT020
     FM231300 31015KT P6SM SKC
     FM231900 16008KT P6SM FEW015
      AMD LTD TO CLD VIS AND WIND 2306/2314=



000
FTUS45 KPIH 230300 AAA
TAFBYI
TAF AMD
KBYI 230349Z 2304/2324 25018G26KT P6SM SCT007 BKN010 OVC100
     FM230700 27013KT P6SM VCSH SCT008 OVC025
     FM231000 27015KT P6SM OVC008
     FM231900 26017G24KT P6SM SCT008 BKN080=



000
FTUS45 KPIH 230300 AAA
TAFPIH
TAF AMD
KPIH 230346Z 2304/2324 21017KT P6SM VCSH BKN015 BKN110
     FM230500 22015KT P6SM -RASN OVC015
     FM231000 23015KT P6SM SCT008 BKN015
     FM231400 23012KT P6SM OVC008
     FM232000 24016G25KT P6SM SCT008 OVC015=



000
FTUS45 KPIH 230200 AAA
TAFPIH
TAF AMD
KPIH 230208Z 2302/2324 22015G23KT P6SM VCSH BKN020 BKN110
     FM230500 23012G20KT P6SM -RASN OVC015
     FM231000 23015KT P6SM SCT008 BKN015
     FM231400 23012KT P6SM OVC008
     FM232000 24016G25KT P6SM SCT008 OVC015=



000
FTUS45 KPIH 230200 AAA
TAFSUN
TAF AMD
KSUN 230208Z 2302/2324 32009KT P6SM SCT025 BKN100
     FM230300 31005KT 5SM -SN BKN020 OVC050
     FM230500 31009KT P6SM SCT020
     FM231300 31015KT P6SM SKC
     FM231900 16008KT P6SM FEW015
      AMD LTD TO CLD VIS AND WIND 2306/2314=



    US Dept of Commerce
    National Oceanic and Atmospheric Administration
    National Weather Service
    1325 East West Highway
    Silver Spring, MD 20910
    Page Author: NWS Internet Services Team
Disclaimer
Information Quality
Credits
Glossary
Privacy Policy
Freedom of Information Act (FOIA)
About Us
Career Opportunities